createdAt,value
2019-03-27T00:01:17.066Z,101784.86
2019-03-27T00:03:50.090Z,101785.63
2019-03-27T00:06:23.975Z,101792.33
2019-03-27T00:08:56.930Z,101787.61
2019-03-27T00:11:29.001Z,101782.37
2019-03-27T00:13:59.641Z,101777.97
2019-03-27T00:16:28.734Z,101772.41
2019-03-27T00:19:03.752Z,101772.14
2019-03-27T00:21:41.881Z,101770.84
2019-03-27T00:24:12.940Z,101772.88
2019-03-27T00:26:43.859Z,101767.70
2019-03-27T00:29:15.101Z,101775.59
2019-03-27T00:31:44.095Z,101774.51
2019-03-27T00:34:14.934Z,101768.23
2019-03-27T00:36:46.799Z,101767.47
2019-03-27T00:39:17.941Z,101766.65
2019-03-27T00:41:51.171Z,101763.84
2019-03-27T00:44:24.334Z,101764.59
2019-03-27T00:46:55.150Z,101760.19
2019-03-27T00:49:28.857Z,101761.79
2019-03-27T00:51:59.901Z,101759.70
2019-03-27T00:54:29.354Z,101764.25
2019-03-27T00:56:59.249Z,101763.45
2019-03-27T01:02:12.662Z,101757.16
2019-03-27T01:04:45.853Z,101753.00
2019-03-27T01:07:14.150Z,101751.36
2019-03-27T01:09:47.136Z,101756.12
2019-03-27T01:12:14.672Z,101755.41
2019-03-27T01:14:47.630Z,101759.13
2019-03-27T01:17:19.512Z,101754.50
2019-03-27T01:19:53.700Z,101749.28
2019-03-27T01:22:25.210Z,101751.86
2019-03-27T01:24:54.079Z,101751.86
2019-03-27T01:27:25.413Z,101757.40
2019-03-27T01:30:00.355Z,101752.06
2019-03-27T01:32:31.295Z,101749.98
2019-03-27T01:37:44.558Z,101749.61
2019-03-27T01:40:15.461Z,101743.42
2019-03-27T01:42:44.582Z,101748.23
2019-03-27T01:45:16.523Z,101737.47
2019-03-27T01:47:52.576Z,101732.89
2019-03-27T01:50:25.150Z,101739.80
2019-03-27T01:52:56.923Z,101736.02
2019-03-27T01:55:27.046Z,101733.50
2019-03-27T01:58:03.197Z,101735.78
2019-03-27T02:00:31.359Z,101738.00
2019-03-27T02:03:03.557Z,101739.75
2019-03-27T02:05:44.445Z,101736.94
2019-03-27T02:08:15.462Z,101737.85
2019-03-27T02:10:47.241Z,101748.03
2019-03-27T02:13:16.319Z,101741.16
2019-03-27T02:15:48.081Z,101739.53
2019-03-27T02:18:21.861Z,101740.61
2019-03-27T02:20:56.398Z,101745.41
2019-03-27T02:23:25.802Z,101740.16
2019-03-27T02:28:39.051Z,101739.83
2019-03-27T02:31:10.022Z,101736.71
2019-03-27T02:33:40.338Z,101741.82
2019-03-27T02:36:09.405Z,101745.39
2019-03-27T02:38:45.036Z,101745.09
2019-03-27T02:41:14.040Z,101748.72
2019-03-27T02:43:43.686Z,101743.28
2019-03-27T02:46:24.643Z,101747.77
2019-03-27T02:48:44.362Z,101746.06
2019-03-27T02:51:17.496Z,101747.30
2019-03-27T02:53:46.293Z,101744.62
2019-03-27T02:56:15.916Z,101742.95
2019-03-27T03:01:27.822Z,101746.58
2019-03-27T03:04:00.001Z,101747.34
2019-03-27T03:06:34.567Z,101744.45
2019-03-27T03:09:06.215Z,101740.97
2019-03-27T03:11:37.593Z,101743.56
2019-03-27T03:14:07.257Z,101744.92
2019-03-27T03:16:42.707Z,101736.52
2019-03-27T03:19:10.747Z,101742.34
2019-03-27T03:21:42.021Z,101745.37
2019-03-27T03:24:11.936Z,101745.76
2019-03-27T03:26:43.059Z,101749.72
2019-03-27T03:29:12.965Z,101745.78
2019-03-27T03:31:43.979Z,101745.61
2019-03-27T03:34:13.549Z,101752.83
2019-03-27T03:36:44.493Z,101754.20
2019-03-27T03:39:18.450Z,101754.45
2019-03-27T03:41:49.478Z,101750.94
2019-03-27T03:44:20.182Z,101757.55
2019-03-27T03:47:00.085Z,101748.58
2019-03-27T03:49:24.127Z,101754.81
2019-03-27T03:51:55.691Z,101755.57
2019-03-27T03:54:29.408Z,101750.61
2019-03-27T03:59:42.530Z,101752.16
2019-03-27T04:02:12.624Z,101744.22
2019-03-27T04:04:42.557Z,101750.16
2019-03-27T04:07:15.229Z,101753.59
2019-03-27T04:09:49.760Z,101755.52
2019-03-27T04:12:24.904Z,101757.56
2019-03-27T04:14:54.299Z,101764.24
2019-03-27T04:17:24.548Z,101768.45
2019-03-27T04:19:57.202Z,101764.44
2019-03-27T04:22:28.351Z,101765.27
2019-03-27T04:24:57.188Z,101765.23
2019-03-27T04:27:26.434Z,101766.64
2019-03-27T04:29:59.786Z,101769.59
2019-03-27T04:32:30.627Z,101773.34
2019-03-27T04:35:00.600Z,101774.56
2019-03-27T04:37:30.391Z,101769.29
2019-03-27T04:39:59.774Z,101772.70
2019-03-27T04:42:38.236Z,101772.73
2019-03-27T04:45:07.801Z,101775.31
2019-03-27T04:47:38.340Z,101775.14
2019-03-27T04:50:08.745Z,101778.52
2019-03-27T04:52:39.889Z,101775.15
2019-03-27T04:55:10.254Z,101777.91
2019-03-27T04:57:43.322Z,101776.05
2019-03-27T05:00:14.326Z,101779.24
2019-03-27T05:02:44.771Z,101780.41
2019-03-27T05:05:14.858Z,101770.44
2019-03-27T05:07:45.186Z,101779.66
2019-03-27T05:10:16.973Z,101782.67
2019-03-27T05:12:48.312Z,101787.03
2019-03-27T05:18:05.381Z,101786.02
2019-03-27T05:20:35.772Z,101787.87
2019-03-27T05:23:04.875Z,101792.65
2019-03-27T05:25:35.371Z,101789.11
2019-03-27T05:28:05.942Z,101793.53
2019-03-27T05:30:36.667Z,101803.68
2019-03-27T05:33:07.716Z,101797.56
2019-03-27T05:35:44.218Z,101800.42
2019-03-27T05:38:14.712Z,101807.18
2019-03-27T05:40:47.016Z,101809.16
2019-03-27T05:43:17.902Z,101812.42
2019-03-27T05:45:48.102Z,101810.78
2019-03-27T05:48:17.359Z,101812.70
2019-03-27T05:53:29.161Z,101811.75
2019-03-27T05:55:58.849Z,101813.09
2019-03-27T05:58:32.069Z,101818.77
2019-03-27T06:01:01.463Z,101825.09
2019-03-27T06:03:31.793Z,101819.45
2019-03-27T06:06:01.701Z,101830.99
2019-03-27T06:08:31.618Z,101830.16
2019-03-27T06:11:05.935Z,101824.41
2019-03-27T06:13:37.167Z,101826.00
2019-03-27T06:16:10.041Z,101827.20
2019-03-27T06:18:42.844Z,101826.22
2019-03-27T06:21:13.069Z,101825.23
2019-03-27T06:23:44.246Z,101822.56
2019-03-27T06:26:15.147Z,101827.85
2019-03-27T06:28:47.061Z,101830.19
2019-03-27T06:31:17.356Z,101826.97
2019-03-27T06:33:50.196Z,101828.19
2019-03-27T06:36:24.117Z,101829.33
2019-03-27T06:38:56.830Z,101829.11
2019-03-27T06:41:27.865Z,101825.19
2019-03-27T06:43:56.612Z,101826.47
2019-03-27T06:46:28.455Z,101830.86
2019-03-27T06:49:07.791Z,101831.66
2019-03-27T06:51:40.259Z,101840.81
2019-03-27T06:54:09.838Z,101837.52
2019-03-27T06:56:44.731Z,101836.00
2019-03-27T06:59:15.986Z,101840.73
2019-03-27T07:01:47.951Z,101847.41
2019-03-27T07:04:23.717Z,101854.79
2019-03-27T07:06:55.582Z,101854.05
2019-03-27T07:09:28.878Z,101855.90
2019-03-27T07:12:03.166Z,101852.97
2019-03-27T07:14:34.211Z,101854.52
2019-03-27T07:17:07.741Z,101858.62
2019-03-27T07:19:36.683Z,101868.12
2019-03-27T07:22:08.966Z,101865.05
2019-03-27T07:27:19.884Z,101860.91
2019-03-27T07:29:51.825Z,101851.09
2019-03-27T07:32:25.423Z,101843.92
2019-03-27T07:34:54.728Z,101852.94
2019-03-27T07:37:24.231Z,101858.86
2019-03-27T07:39:52.563Z,101858.06
2019-03-27T07:42:21.551Z,101857.33
2019-03-27T07:44:51.902Z,101856.70
2019-03-27T07:47:22.225Z,101866.48
2019-03-27T07:49:54.468Z,101864.42
2019-03-27T07:52:24.429Z,101858.42
2019-03-27T07:54:55.379Z,101858.33
2019-03-27T07:57:26.377Z,101861.40
2019-03-27T08:00:03.159Z,101865.11
2019-03-27T08:02:34.964Z,101860.83
2019-03-27T08:05:04.963Z,101861.03
2019-03-27T08:07:36.103Z,101859.00
2019-03-27T08:10:11.220Z,101873.15
2019-03-27T08:12:42.809Z,101872.14
2019-03-27T08:15:14.141Z,101875.41
2019-03-27T08:17:45.285Z,101875.54
2019-03-27T08:20:14.746Z,101878.30
2019-03-27T08:22:48.310Z,101883.35
2019-03-27T08:25:19.657Z,101882.03
2019-03-27T08:27:52.111Z,101880.99
2019-03-27T08:30:24.077Z,101868.27
2019-03-27T08:32:57.555Z,101871.94
2019-03-27T08:35:27.674Z,101871.22
2019-03-27T08:38:04.040Z,101873.61
2019-03-27T08:43:21.233Z,101869.98
2019-03-27T08:45:45.090Z,101868.78
2019-03-27T08:48:13.711Z,101874.84
2019-03-27T08:50:46.224Z,101870.80
2019-03-27T08:53:17.085Z,101866.67
2019-03-27T08:55:46.236Z,101868.25
2019-03-27T08:58:16.991Z,101871.20
2019-03-27T09:00:49.964Z,101869.81
2019-03-27T09:03:20.962Z,101881.72
2019-03-27T09:05:51.546Z,101876.41
2019-03-27T09:08:30.585Z,101880.33
2019-03-27T09:11:05.561Z,101870.45
2019-03-27T09:13:37.238Z,101871.47
2019-03-27T09:16:07.081Z,101871.61
2019-03-27T09:18:40.993Z,101875.72
2019-03-27T09:21:13.053Z,101872.77
2019-03-27T09:23:45.564Z,101871.47
2019-03-27T09:26:11.835Z,101874.30
2019-03-27T09:31:44.701Z,101875.39
2019-03-27T09:34:05.482Z,101880.80
2019-03-27T09:36:39.854Z,101875.86
2019-03-27T09:39:12.558Z,101877.76
2019-03-27T09:41:42.153Z,101887.83
2019-03-27T09:44:17.220Z,101886.60
2019-03-27T09:46:47.205Z,101883.78
2019-03-27T09:49:19.178Z,101878.70
2019-03-27T09:51:51.108Z,101868.63
2019-03-27T09:54:20.994Z,101869.46
2019-03-27T09:56:52.303Z,101860.17
2019-03-27T09:59:21.749Z,101860.80
2019-03-27T10:01:53.137Z,101851.52
2019-03-27T10:04:22.270Z,101841.36
2019-03-27T10:06:53.441Z,101839.25
2019-03-27T10:09:25.437Z,101831.31
2019-03-27T10:11:55.371Z,101842.97
2019-03-27T10:14:25.388Z,101844.72
2019-03-27T10:16:59.410Z,101827.05
2019-03-27T10:19:30.438Z,101833.78
2019-03-27T10:22:02.732Z,101827.36
2019-03-27T10:24:35.183Z,101814.59
2019-03-27T10:27:09.687Z,101820.39
2019-03-27T10:29:40.485Z,101816.02
2019-03-27T10:32:11.586Z,101824.36
2019-03-27T10:34:46.105Z,101814.18
2019-03-27T10:37:17.423Z,101812.53
2019-03-27T10:39:50.623Z,101819.43
2019-03-27T10:42:20.459Z,101832.28
2019-03-27T10:44:54.105Z,101836.75
2019-03-27T10:47:26.577Z,101834.19
2019-03-27T10:49:56.445Z,101825.09
2019-03-27T10:52:31.890Z,101828.94
2019-03-27T10:55:03.978Z,101826.80
2019-03-27T10:57:34.345Z,101823.84
2019-03-27T11:00:06.189Z,101824.31
2019-03-27T11:02:38.333Z,101827.88
2019-03-27T11:05:07.936Z,101830.81
2019-03-27T11:07:39.468Z,101825.13
2019-03-27T11:10:11.042Z,101821.56
2019-03-27T11:12:42.540Z,101814.32
2019-03-27T11:15:13.619Z,101825.88
2019-03-27T11:17:44.370Z,101830.94
2019-03-27T11:20:31.479Z,101827.52
2019-03-27T11:22:49.647Z,101826.90
2019-03-27T11:25:23.208Z,101819.67
2019-03-27T11:27:58.752Z,101810.63
2019-03-27T11:30:38.415Z,101812.72
2019-03-27T11:33:10.627Z,101807.45
2019-03-27T11:35:42.605Z,101802.77
2019-03-27T11:40:50.351Z,101791.25
2019-03-27T11:43:21.188Z,101794.72
2019-03-27T11:45:55.153Z,101791.55
2019-03-27T11:48:27.255Z,101791.39
2019-03-27T11:50:59.428Z,101790.64
2019-03-27T11:53:30.105Z,101779.20
2019-03-27T11:56:03.354Z,101774.58
2019-03-27T12:01:17.405Z,101771.38
2019-03-27T12:03:47.356Z,101769.84
2019-03-27T12:06:19.305Z,101779.06
2019-03-27T12:08:50.925Z,101772.02
2019-03-27T12:11:19.340Z,101788.64
2019-03-27T12:13:52.288Z,101784.22
2019-03-27T12:16:23.613Z,101781.69
2019-03-27T12:21:47.803Z,101786.34
2019-03-27T12:24:20.711Z,101789.66
2019-03-27T12:26:50.877Z,101788.09
2019-03-27T12:29:21.505Z,101779.23
2019-03-27T12:31:53.858Z,101772.02
2019-03-27T12:34:23.237Z,101785.47
2019-03-27T12:36:54.834Z,101772.22
2019-03-27T12:39:26.979Z,101766.48
2019-03-27T12:41:58.169Z,101767.31
2019-03-27T12:44:37.337Z,101773.98
2019-03-27T12:47:02.580Z,101771.78
2019-03-27T12:49:32.552Z,101768.50
2019-03-27T12:52:05.621Z,101762.55
2019-03-27T12:54:35.590Z,101773.34
2019-03-27T12:57:08.464Z,101772.87
2019-03-27T12:59:37.241Z,101780.17
2019-03-27T13:02:07.495Z,101771.02
2019-03-27T13:04:38.597Z,101765.31
2019-03-27T13:07:10.640Z,101766.39
2019-03-27T13:09:41.602Z,101772.36
2019-03-27T13:12:11.936Z,101768.56
2019-03-27T13:14:46.387Z,101766.08
2019-03-27T13:17:11.854Z,101769.26
2019-03-27T13:19:43.818Z,101770.62
2019-03-27T13:22:14.470Z,101764.35
2019-03-27T13:24:50.188Z,101771.78
2019-03-27T13:27:26.791Z,101775.87
2019-03-27T13:29:59.936Z,101780.52
2019-03-27T13:32:29.563Z,101783.28
2019-03-27T13:34:59.810Z,101787.19
2019-03-27T13:37:29.224Z,101778.77
2019-03-27T13:40:03.637Z,101784.94
2019-03-27T13:42:36.302Z,101788.03
2019-03-27T13:45:08.399Z,101791.92
2019-03-27T13:47:40.143Z,101788.95
2019-03-27T13:50:12.691Z,101791.70
2019-03-27T13:52:40.096Z,101782.92
2019-03-27T13:55:09.509Z,101782.42
2019-03-27T13:57:39.380Z,101772.52
2019-03-27T14:00:11.094Z,101768.14
2019-03-27T14:02:40.491Z,101772.08
2019-03-27T14:05:15.413Z,101769.55
2019-03-27T14:07:53.380Z,101769.69
2019-03-27T14:10:25.648Z,101767.42
2019-03-27T14:12:56.096Z,101758.64
2019-03-27T14:15:25.968Z,101763.17
2019-03-27T14:20:37.082Z,101757.91
2019-03-27T14:23:07.591Z,101755.06
2019-03-27T14:25:38.509Z,101760.50
2019-03-27T14:28:06.999Z,101755.69
2019-03-27T14:30:54.542Z,101755.80
2019-03-27T14:33:23.946Z,101754.48
2019-03-27T14:38:43.566Z,101757.24
2019-03-27T14:41:16.637Z,101748.09
2019-03-27T14:43:48.595Z,101747.92
2019-03-27T14:46:23.607Z,101743.66
2019-03-27T14:48:54.043Z,101736.30
2019-03-27T14:51:24.072Z,101733.50
2019-03-27T14:53:54.569Z,101741.22
2019-03-27T14:56:24.239Z,101743.27
2019-03-27T14:58:53.663Z,101740.61
2019-03-27T15:01:23.350Z,101735.80
2019-03-27T15:06:41.076Z,101739.66
2019-03-27T15:09:11.913Z,101740.25
2019-03-27T15:11:43.074Z,101739.80
2019-03-27T15:14:17.351Z,101743.52
2019-03-27T15:16:48.306Z,101737.81
2019-03-27T15:19:17.720Z,101737.91
2019-03-27T15:21:52.032Z,101735.94
2019-03-27T15:24:23.394Z,101739.78
2019-03-27T15:26:53.253Z,101741.39
2019-03-27T15:29:25.052Z,101741.20
2019-03-27T15:31:58.881Z,101747.09
2019-03-27T15:34:30.001Z,101735.33
2019-03-27T15:37:02.886Z,101729.44
2019-03-27T15:39:36.422Z,101730.17
2019-03-27T15:42:09.322Z,101736.98
2019-03-27T15:44:41.357Z,101729.76
2019-03-27T15:47:12.153Z,101730.11
2019-03-27T15:49:43.908Z,101728.33
2019-03-27T15:52:17.321Z,101723.80
2019-03-27T15:54:48.718Z,101729.05
2019-03-27T15:57:18.897Z,101739.38
2019-03-27T15:59:48.910Z,101738.00
2019-03-27T16:02:18.769Z,101739.59
2019-03-27T16:04:49.885Z,101745.23
2019-03-27T16:07:21.748Z,101760.58
2019-03-27T16:09:53.159Z,101755.64
2019-03-27T16:12:23.008Z,101758.62
2019-03-27T16:14:55.284Z,101755.27
2019-03-27T16:17:29.227Z,101764.41
2019-03-27T16:19:59.800Z,101758.96
2019-03-27T16:22:29.585Z,101774.97
2019-03-27T16:25:00.138Z,101767.02
2019-03-27T16:27:30.156Z,101769.37
2019-03-27T16:30:00.790Z,101772.37
2019-03-27T16:35:13.154Z,101765.14
2019-03-27T16:37:45.375Z,101773.30
2019-03-27T16:40:18.383Z,101769.52
2019-03-27T16:42:53.517Z,101769.89
2019-03-27T16:45:24.972Z,101769.03
2019-03-27T16:48:02.751Z,101771.05
2019-03-27T16:50:35.808Z,101776.86
2019-03-27T16:53:07.904Z,101781.25
2019-03-27T16:58:16.640Z,101788.02
2019-03-27T17:00:49.955Z,101787.06
2019-03-27T17:03:22.281Z,101796.75
2019-03-27T17:05:54.174Z,101797.16
2019-03-27T17:11:12.531Z,101805.48
2019-03-27T17:13:45.210Z,101809.36
2019-03-27T17:16:18.608Z,101808.91
2019-03-27T17:18:50.648Z,101810.14
2019-03-27T17:21:21.653Z,101815.27
2019-03-27T17:23:54.779Z,101822.81
2019-03-27T17:26:28.630Z,101818.69
2019-03-27T17:29:01.260Z,101825.92
2019-03-27T17:31:32.819Z,101821.05
2019-03-27T17:34:05.538Z,101828.41
2019-03-27T17:36:36.322Z,101825.33
2019-03-27T17:39:09.075Z,101825.81
2019-03-27T17:41:42.120Z,101827.51
2019-03-27T17:44:14.289Z,101831.27
2019-03-27T17:46:50.034Z,101830.97
2019-03-27T17:49:16.515Z,101834.91
2019-03-27T17:51:48.027Z,101842.14
2019-03-27T17:54:20.652Z,101845.56
2019-03-27T17:56:51.342Z,101848.95
2019-03-27T17:59:27.376Z,101852.70
2019-03-27T18:01:58.536Z,101863.58
2019-03-27T18:04:31.423Z,101853.16
2019-03-27T18:07:04.305Z,101856.46
2019-03-27T18:09:35.881Z,101862.83
2019-03-27T18:12:08.336Z,101871.67
2019-03-27T18:14:38.431Z,101872.58
2019-03-27T18:17:11.971Z,101871.95
2019-03-27T18:19:42.277Z,101877.86
2019-03-27T18:22:15.294Z,101880.46
2019-03-27T18:24:50.399Z,101881.64
2019-03-27T18:27:20.427Z,101876.55
2019-03-27T18:29:57.395Z,101886.77
2019-03-27T18:32:29.254Z,101884.72
2019-03-27T18:34:59.459Z,101888.89
2019-03-27T18:37:31.638Z,101888.66
2019-03-27T18:40:05.853Z,101896.12
2019-03-27T18:42:36.309Z,101906.19
2019-03-27T18:45:05.987Z,101903.78
2019-03-27T18:47:39.094Z,101906.78
2019-03-27T18:50:08.747Z,101913.29
2019-03-27T18:52:38.065Z,101915.95
2019-03-27T18:55:25.485Z,101915.86
2019-03-27T18:57:41.908Z,101918.15
2019-03-27T19:00:12.698Z,101923.34
2019-03-27T19:02:44.275Z,101922.97
2019-03-27T19:07:52.143Z,101934.06
2019-03-27T19:10:24.367Z,101937.89
2019-03-27T19:12:56.251Z,101938.31
2019-03-27T19:15:26.217Z,101938.70
2019-03-27T19:17:55.153Z,101942.09
2019-03-27T19:20:29.682Z,101937.77
2019-03-27T19:22:59.389Z,101938.55
2019-03-27T19:25:29.688Z,101940.22
2019-03-27T19:28:01.330Z,101938.31
2019-03-27T19:30:34.562Z,101937.26
2019-03-27T19:33:03.664Z,101931.63
2019-03-27T19:38:16.695Z,101939.06
2019-03-27T19:40:46.528Z,101941.02
2019-03-27T19:43:16.607Z,101946.62
2019-03-27T19:45:47.714Z,101943.44
2019-03-27T19:48:17.977Z,101944.86
2019-03-27T19:50:49.545Z,101939.39
2019-03-27T19:53:19.562Z,101949.83
2019-03-27T19:58:30.961Z,101955.00
2019-03-27T20:01:02.669Z,101949.61
2019-03-27T20:03:34.412Z,101949.31
2019-03-27T20:06:03.821Z,101956.77
2019-03-27T20:08:42.837Z,101955.16
2019-03-27T20:11:12.317Z,101951.73
2019-03-27T20:13:43.518Z,101949.91
2019-03-27T20:16:15.870Z,101953.11
2019-03-27T20:18:46.852Z,101954.08
2019-03-27T20:21:18.422Z,101951.97
2019-03-27T20:23:50.404Z,101964.53
2019-03-27T20:26:24.494Z,101965.37
2019-03-27T20:28:55.023Z,101967.28
2019-03-27T20:31:26.274Z,101963.45
2019-03-27T20:34:01.917Z,101967.18
2019-03-27T20:36:40.542Z,101959.59
2019-03-27T20:39:11.268Z,101964.52
2019-03-27T20:41:43.355Z,101963.38
2019-03-27T20:44:15.077Z,101958.05
2019-03-27T20:46:47.187Z,101964.10
2019-03-27T20:49:17.595Z,101964.10
2019-03-27T20:51:47.127Z,101966.17
2019-03-27T20:54:23.455Z,101964.98
2019-03-27T20:59:37.334Z,101957.73
2019-03-27T21:02:08.070Z,101960.84
2019-03-27T21:04:41.434Z,101966.98
2019-03-27T21:07:12.480Z,101971.78
2019-03-27T21:09:43.994Z,101968.16
2019-03-27T21:12:16.715Z,101974.97
2019-03-27T21:14:48.498Z,101968.81
2019-03-27T21:17:21.562Z,101971.85
2019-03-27T21:19:54.135Z,101975.31
2019-03-27T21:22:30.807Z,101983.52
2019-03-27T21:25:09.106Z,101980.40
2019-03-27T21:27:36.602Z,101984.27
2019-03-27T21:32:49.208Z,101979.45
2019-03-27T21:35:20.555Z,101979.41
2019-03-27T21:37:52.825Z,101981.95
2019-03-27T21:43:02.793Z,101974.03
2019-03-27T21:45:32.811Z,101973.34
2019-03-27T21:48:07.934Z,101977.70
2019-03-27T21:53:22.523Z,101974.28
2019-03-27T21:55:53.460Z,101972.42
2019-03-27T21:58:24.804Z,101978.08
2019-03-27T22:01:02.891Z,101971.12
2019-03-27T22:03:34.688Z,101969.23
2019-03-27T22:06:04.892Z,101979.60
2019-03-27T22:08:36.648Z,101972.81
2019-03-27T22:11:09.942Z,101978.46
2019-03-27T22:13:43.934Z,101986.10
2019-03-27T22:16:21.148Z,101988.98
2019-03-27T22:18:52.998Z,101989.21
2019-03-27T22:21:27.928Z,101987.19
2019-03-27T22:23:54.470Z,101989.59
2019-03-27T22:26:26.007Z,101985.52
2019-03-27T22:29:00.465Z,101987.87
2019-03-27T22:31:35.801Z,101988.27
2019-03-27T22:34:03.955Z,101990.01
2019-03-27T22:36:36.597Z,101991.11
2019-03-27T22:39:11.361Z,101991.03
2019-03-27T22:41:48.233Z,101994.48
2019-03-27T22:44:19.152Z,101993.50
2019-03-27T22:46:54.249Z,101995.92
2019-03-27T22:49:31.525Z,101994.84
2019-03-27T22:54:45.559Z,101998.20
2019-03-27T22:57:16.423Z,101997.44
2019-03-27T22:59:44.971Z,101996.95
2019-03-27T23:05:00.069Z,102000.63
2019-03-27T23:07:33.035Z,102004.50
2019-03-27T23:10:06.963Z,102007.22
2019-03-27T23:12:39.696Z,101998.17
2019-03-27T23:15:12.726Z,102001.62
2019-03-27T23:20:26.121Z,102016.43
2019-03-27T23:22:56.099Z,102011.84
2019-03-27T23:25:26.074Z,102014.05
2019-03-27T23:27:58.993Z,102010.98
2019-03-27T23:30:31.191Z,102008.45
2019-03-27T23:33:02.512Z,102011.93
2019-03-27T23:35:34.656Z,102012.08
2019-03-27T23:38:04.589Z,102014.22
2019-03-27T23:40:40.342Z,102013.26
2019-03-27T23:43:12.991Z,102018.92
2019-03-27T23:45:41.094Z,102013.02
2019-03-27T23:48:14.657Z,102017.77
2019-03-27T23:50:47.062Z,102019.02
2019-03-27T23:53:18.518Z,102018.78
2019-03-27T23:58:34.747Z,102016.33
